sensor_id;sensor_type;location;lat;lon;timestamp;P1;durP1;ratioP1;P2;durP2;ratioP2
30519;SDS011;17300;50.374;8.006;2023-07-22T00:00:42;3.47;;;2.43;;
30519;SDS011;17300;50.374;8.006;2023-07-22T00:03:09;2.77;;;2.57;;
30519;SDS011;17300;50.374;8.006;2023-07-22T00:05:36;2.40;;;2.23;;
30519;SDS011;17300;50.374;8.006;2023-07-22T00:08:03;4.63;;;2.70;;
30519;SDS011;17300;50.374;8.006;2023-07-22T00:10:30;2.77;;;2.57;;
30519;SDS011;17300;50.374;8.006;2023-07-22T00:12:56;2.90;;;2.70;;
30519;SDS011;17300;50.374;8.006;2023-07-22T00:15:23;2.70;;;2.50;;
30519;SDS011;17300;50.374;8.006;2023-07-22T00:17:51;2.43;;;2.30;;
30519;SDS011;17300;50.374;8.006;2023-07-22T00:20:19;2.63;;;2.43;;
30519;SDS011;17300;50.374;8.006;2023-07-22T00:22:45;2.80;;;2.60;;
30519;SDS011;17300;50.374;8.006;2023-07-22T00:25:12;2.90;;;2.70;;
30519;SDS011;17300;50.374;8.006;2023-07-22T00:27:39;2.70;;;2.50;;
30519;SDS011;17300;50.374;8.006;2023-07-22T00:30:07;2.87;;;2.67;;
30519;SDS011;17300;50.374;8.006;2023-07-22T00:32:35;2.43;;;2.23;;
30519;SDS011;17300;50.374;8.006;2023-07-22T00:35:04;2.57;;;2.37;;
30519;SDS011;17300;50.374;8.006;2023-07-22T00:37:32;2.73;;;2.53;;
30519;SDS011;17300;50.374;8.006;2023-07-22T00:39:58;2.63;;;2.37;;
30519;SDS011;17300;50.374;8.006;2023-07-22T00:42:27;3.50;;;2.87;;
30519;SDS011;17300;50.374;8.006;2023-07-22T00:44:54;2.90;;;2.50;;
30519;SDS011;17300;50.374;8.006;2023-07-22T00:47:20;2.77;;;2.57;;
30519;SDS011;17300;50.374;8.006;2023-07-22T00:49:48;2.87;;;2.67;;
30519;SDS011;17300;50.374;8.006;2023-07-22T00:52:18;3.07;;;2.87;;
30519;SDS011;17300;50.374;8.006;2023-07-22T00:54:45;2.80;;;2.60;;
30519;SDS011;17300;50.374;8.006;2023-07-22T00:57:12;2.93;;;2.73;;
30519;SDS011;17300;50.374;8.006;2023-07-22T00:59:38;3.87;;;2.83;;
30519;SDS011;17300;50.374;8.006;2023-07-22T01:02:05;3.03;;;2.83;;
30519;SDS011;17300;50.374;8.006;2023-07-22T01:04:32;3.13;;;2.93;;
30519;SDS011;17300;50.374;8.006;2023-07-22T01:07:00;2.90;;;2.70;;
30519;SDS011;17300;50.374;8.006;2023-07-22T01:09:34;2.47;;;2.27;;
30519;SDS011;17300;50.374;8.006;2023-07-22T01:12:02;3.00;;;2.43;;
30519;SDS011;17300;50.374;8.006;2023-07-22T01:14:30;2.60;;;2.40;;
30519;SDS011;17300;50.374;8.006;2023-07-22T01:16:57;2.60;;;2.40;;
30519;SDS011;17300;50.374;8.006;2023-07-22T01:19:24;3.17;;;2.43;;
30519;SDS011;17300;50.374;8.006;2023-07-22T01:21:51;2.40;;;2.20;;
30519;SDS011;17300;50.374;8.006;2023-07-22T01:24:20;2.33;;;2.17;;
30519;SDS011;17300;50.374;8.006;2023-07-22T01:26:47;2.53;;;2.33;;
30519;SDS011;17300;50.374;8.006;2023-07-22T01:29:14;3.20;;;3.00;;
30519;SDS011;17300;50.374;8.006;2023-07-22T01:31:41;2.83;;;2.60;;
30519;SDS011;17300;50.374;8.006;2023-07-22T01:34:07;2.67;;;2.47;;
30519;SDS011;17300;50.374;8.006;2023-07-22T01:36:34;3.87;;;2.60;;
30519;SDS011;17300;50.374;8.006;2023-07-22T01:39:01;4.23;;;2.43;;
30519;SDS011;17300;50.374;8.006;2023-07-22T01:41:32;2.90;;;2.70;;
30519;SDS011;17300;50.374;8.006;2023-07-22T01:43:58;2.83;;;2.63;;
30519;SDS011;17300;50.374;8.006;2023-07-22T01:46:25;3.03;;;2.83;;
30519;SDS011;17300;50.374;8.006;2023-07-22T01:48:52;3.10;;;2.90;;
30519;SDS011;17300;50.374;8.006;2023-07-22T01:51:18;2.87;;;2.67;;
30519;SDS011;17300;50.374;8.006;2023-07-22T01:53:45;3.07;;;2.87;;
30519;SDS011;17300;50.374;8.006;2023-07-22T01:56:12;2.93;;;2.67;;
30519;SDS011;17300;50.374;8.006;2023-07-22T01:58:40;3.43;;;3.13;;
30519;SDS011;17300;50.374;8.006;2023-07-22T02:01:07;3.20;;;3.00;;
30519;SDS011;17300;50.374;8.006;2023-07-22T02:03:34;2.93;;;2.73;;
30519;SDS011;17300;50.374;8.006;2023-07-22T02:06:01;3.03;;;2.83;;
30519;SDS011;17300;50.374;8.006;2023-07-22T02:08:28;3.20;;;3.00;;
30519;SDS011;17300;50.374;8.006;2023-07-22T02:10:55;2.80;;;2.57;;
30519;SDS011;17300;50.374;8.006;2023-07-22T02:13:26;3.10;;;2.90;;
30519;SDS011;17300;50.374;8.006;2023-07-22T02:15:54;3.03;;;2.83;;
30519;SDS011;17300;50.374;8.006;2023-07-22T02:18:21;3.20;;;3.00;;
30519;SDS011;17300;50.374;8.006;2023-07-22T02:20:47;3.17;;;2.97;;
30519;SDS011;17300;50.374;8.006;2023-07-22T02:23:14;3.83;;;3.30;;
30519;SDS011;17300;50.374;8.006;2023-07-22T02:25:41;3.63;;;2.87;;
30519;SDS011;17300;50.374;8.006;2023-07-22T02:28:07;3.60;;;3.30;;
30519;SDS011;17300;50.374;8.006;2023-07-22T02:30:34;3.20;;;3.00;;
30519;SDS011;17300;50.374;8.006;2023-07-22T02:33:02;3.60;;;3.30;;
30519;SDS011;17300;50.374;8.006;2023-07-22T02:35:31;3.53;;;3.23;;
30519;SDS011;17300;50.374;8.006;2023-07-22T02:37:58;4.60;;;2.80;;
30519;SDS011;17300;50.374;8.006;2023-07-22T02:40:24;3.77;;;3.00;;
30519;SDS011;17300;50.374;8.006;2023-07-22T02:42:51;2.70;;;2.50;;
30519;SDS011;17300;50.374;8.006;2023-07-22T02:45:18;2.60;;;2.40;;
30519;SDS011;17300;50.374;8.006;2023-07-22T02:47:44;2.57;;;2.37;;
30519;SDS011;17300;50.374;8.006;2023-07-22T02:50:12;3.40;;;2.23;;
30519;SDS011;17300;50.374;8.006;2023-07-22T02:52:39;2.63;;;2.43;;
30519;SDS011;17300;50.374;8.006;2023-07-22T02:55:07;3.13;;;2.67;;
30519;SDS011;17300;50.374;8.006;2023-07-22T02:57:35;3.20;;;2.80;;
30519;SDS011;17300;50.374;8.006;2023-07-22T03:00:03;2.73;;;2.43;;
30519;SDS011;17300;50.374;8.006;2023-07-22T03:02:33;4.23;;;2.43;;
30519;SDS011;17300;50.374;8.006;2023-07-22T03:04:59;2.80;;;2.37;;
30519;SDS011;17300;50.374;8.006;2023-07-22T03:07:28;2.67;;;2.47;;
30519;SDS011;17300;50.374;8.006;2023-07-22T03:09:55;3.77;;;2.60;;
30519;SDS011;17300;50.374;8.006;2023-07-22T03:12:22;2.63;;;2.27;;
30519;SDS011;17300;50.374;8.006;2023-07-22T03:14:48;2.27;;;2.17;;
30519;SDS011;17300;50.374;8.006;2023-07-22T03:17:17;2.83;;;2.40;;
30519;SDS011;17300;50.374;8.006;2023-07-22T03:19:44;3.03;;;2.30;;
30519;SDS011;17300;50.374;8.006;2023-07-22T03:22:11;2.47;;;2.27;;
30519;SDS011;17300;50.374;8.006;2023-07-22T03:24:42;2.20;;;2.10;;
30519;SDS011;17300;50.374;8.006;2023-07-22T03:27:09;2.07;;;1.97;;
30519;SDS011;17300;50.374;8.006;2023-07-22T03:29:36;2.30;;;2.03;;
30519;SDS011;17300;50.374;8.006;2023-07-22T03:32:03;2.53;;;2.33;;
30519;SDS011;17300;50.374;8.006;2023-07-22T03:34:31;2.47;;;2.27;;
30519;SDS011;17300;50.374;8.006;2023-07-22T03:36:58;2.33;;;2.17;;
30519;SDS011;17300;50.374;8.006;2023-07-22T03:39:25;2.70;;;2.50;;
30519;SDS011;17300;50.374;8.006;2023-07-22T03:41:53;2.43;;;2.23;;
30519;SDS011;17300;50.374;8.006;2023-07-22T03:44:20;2.67;;;2.47;;
30519;SDS011;17300;50.374;8.006;2023-07-22T03:46:46;2.27;;;2.07;;
30519;SDS011;17300;50.374;8.006;2023-07-22T03:49:13;2.33;;;2.23;;
30519;SDS011;17300;50.374;8.006;2023-07-22T03:51:40;2.27;;;2.17;;
30519;SDS011;17300;50.374;8.006;2023-07-22T03:54:06;2.67;;;2.47;;
30519;SDS011;17300;50.374;8.006;2023-07-22T03:56:33;2.93;;;2.13;;
30519;SDS011;17300;50.374;8.006;2023-07-22T03:59:01;2.57;;;2.33;;
30519;SDS011;17300;50.374;8.006;2023-07-22T04:01:28;3.03;;;2.83;;
30519;SDS011;17300;50.374;8.006;2023-07-22T04:03:55;2.80;;;2.53;;
30519;SDS011;17300;50.374;8.006;2023-07-22T04:06:21;4.60;;;3.30;;
30519;SDS011;17300;50.374;8.006;2023-07-22T04:08:48;5.83;;;2.97;;
30519;SDS011;17300;50.374;8.006;2023-07-22T04:11:15;3.57;;;2.73;;
30519;SDS011;17300;50.374;8.006;2023-07-22T04:13:41;3.07;;;2.80;;
30519;SDS011;17300;50.374;8.006;2023-07-22T04:16:09;3.43;;;2.67;;
30519;SDS011;17300;50.374;8.006;2023-07-22T04:18:36;7.23;;;3.23;;
30519;SDS011;17300;50.374;8.006;2023-07-22T04:21:03;2.83;;;2.63;;
30519;SDS011;17300;50.374;8.006;2023-07-22T04:23:29;3.67;;;2.80;;
30519;SDS011;17300;50.374;8.006;2023-07-22T04:25:58;4.00;;;2.50;;
30519;SDS011;17300;50.374;8.006;2023-07-22T04:28:24;3.43;;;2.70;;
30519;SDS011;17300;50.374;8.006;2023-07-22T04:30:54;3.67;;;2.43;;
30519;SDS011;17300;50.374;8.006;2023-07-22T04:33:24;2.83;;;2.33;;
30519;SDS011;17300;50.374;8.006;2023-07-22T04:35:52;2.87;;;2.57;;
30519;SDS011;17300;50.374;8.006;2023-07-22T04:38:21;3.37;;;2.57;;
30519;SDS011;17300;50.374;8.006;2023-07-22T04:40:48;6.33;;;2.87;;
30519;SDS011;17300;50.374;8.006;2023-07-22T04:43:14;3.87;;;3.23;;
30519;SDS011;17300;50.374;8.006;2023-07-22T04:45:43;4.50;;;3.20;;
30519;SDS011;17300;50.374;8.006;2023-07-22T04:48:12;3.17;;;2.80;;
30519;SDS011;17300;50.374;8.006;2023-07-22T04:50:41;2.93;;;2.73;;
30519;SDS011;17300;50.374;8.006;2023-07-22T04:53:10;5.17;;;2.80;;
30519;SDS011;17300;50.374;8.006;2023-07-22T04:55:38;3.73;;;3.20;;
30519;SDS011;17300;50.374;8.006;2023-07-22T04:58:04;4.20;;;3.07;;
30519;SDS011;17300;50.374;8.006;2023-07-22T05:00:31;2.40;;;2.20;;
30519;SDS011;17300;50.374;8.006;2023-07-22T05:02:59;3.57;;;3.17;;
30519;SDS011;17300;50.374;8.006;2023-07-22T05:05:26;3.77;;;2.90;;
30519;SDS011;17300;50.374;8.006;2023-07-22T05:07:53;3.17;;;2.97;;
30519;SDS011;17300;50.374;8.006;2023-07-22T05:10:19;4.50;;;3.27;;
30519;SDS011;17300;50.374;8.006;2023-07-22T05:12:46;3.70;;;2.80;;
30519;SDS011;17300;50.374;8.006;2023-07-22T05:15:13;2.73;;;2.53;;
30519;SDS011;17300;50.374;8.006;2023-07-22T05:17:40;3.40;;;2.47;;
30519;SDS011;17300;50.374;8.006;2023-07-22T05:20:07;3.10;;;2.90;;
30519;SDS011;17300;50.374;8.006;2023-07-22T05:22:35;3.40;;;2.37;;
30519;SDS011;17300;50.374;8.006;2023-07-22T05:25:04;2.60;;;2.33;;
30519;SDS011;17300;50.374;8.006;2023-07-22T05:27:32;2.90;;;2.70;;
30519;SDS011;17300;50.374;8.006;2023-07-22T05:29:59;2.90;;;2.70;;
30519;SDS011;17300;50.374;8.006;2023-07-22T05:32:27;2.77;;;2.57;;
30519;SDS011;17300;50.374;8.006;2023-07-22T05:34:54;2.70;;;2.50;;
30519;SDS011;17300;50.374;8.006;2023-07-22T05:37:22;3.00;;;2.80;;
30519;SDS011;17300;50.374;8.006;2023-07-22T05:39:49;3.03;;;2.23;;
30519;SDS011;17300;50.374;8.006;2023-07-22T05:42:17;3.00;;;2.80;;
30519;SDS011;17300;50.374;8.006;2023-07-22T05:44:44;2.50;;;2.40;;
30519;SDS011;17300;50.374;8.006;2023-07-22T05:47:11;2.57;;;2.37;;
30519;SDS011;17300;50.374;8.006;2023-07-22T05:49:38;5.13;;;2.60;;
30519;SDS011;17300;50.374;8.006;2023-07-22T05:52:05;8.73;;;3.20;;
30519;SDS011;17300;50.374;8.006;2023-07-22T05:54:32;3.20;;;2.90;;
30519;SDS011;17300;50.374;8.006;2023-07-22T05:56:58;3.00;;;2.80;;
30519;SDS011;17300;50.374;8.006;2023-07-22T05:59:26;4.00;;;2.97;;
30519;SDS011;17300;50.374;8.006;2023-07-22T06:01:53;3.27;;;3.00;;
30519;SDS011;17300;50.374;8.006;2023-07-22T06:04:20;2.60;;;2.40;;
30519;SDS011;17300;50.374;8.006;2023-07-22T06:06:47;3.40;;;3.07;;
30519;SDS011;17300;50.374;8.006;2023-07-22T06:09:16;3.30;;;3.00;;
30519;SDS011;17300;50.374;8.006;2023-07-22T06:11:43;4.17;;;2.67;;
30519;SDS011;17300;50.374;8.006;2023-07-22T06:14:09;3.47;;;3.03;;
30519;SDS011;17300;50.374;8.006;2023-07-22T06:16:38;3.47;;;3.17;;
30519;SDS011;17300;50.374;8.006;2023-07-22T06:19:05;2.90;;;2.70;;
30519;SDS011;17300;50.374;8.006;2023-07-22T06:21:31;3.23;;;2.93;;
30519;SDS011;17300;50.374;8.006;2023-07-22T06:23:58;2.40;;;2.20;;
30519;SDS011;17300;50.374;8.006;2023-07-22T06:26:25;2.23;;;2.13;;
30519;SDS011;17300;50.374;8.006;2023-07-22T06:28:51;2.87;;;2.60;;
30519;SDS011;17300;50.374;8.006;2023-07-22T06:31:18;2.97;;;2.60;;
30519;SDS011;17300;50.374;8.006;2023-07-22T06:33:46;2.63;;;2.43;;
30519;SDS011;17300;50.374;8.006;2023-07-22T06:36:12;2.77;;;2.57;;
30519;SDS011;17300;50.374;8.006;2023-07-22T06:38:39;2.60;;;2.43;;
30519;SDS011;17300;50.374;8.006;2023-07-22T06:41:06;2.50;;;2.40;;
30519;SDS011;17300;50.374;8.006;2023-07-22T06:43:33;2.60;;;2.40;;
30519;SDS011;17300;50.374;8.006;2023-07-22T06:46:00;2.57;;;2.37;;
30519;SDS011;17300;50.374;8.006;2023-07-22T06:48:27;2.47;;;2.37;;
30519;SDS011;17300;50.374;8.006;2023-07-22T06:50:55;2.87;;;2.67;;
30519;SDS011;17300;50.374;8.006;2023-07-22T06:53:21;2.60;;;2.43;;
30519;SDS011;17300;50.374;8.006;2023-07-22T06:55:48;3.00;;;2.80;;
30519;SDS011;17300;50.374;8.006;2023-07-22T06:58:16;2.83;;;2.63;;
30519;SDS011;17300;50.374;8.006;2023-07-22T07:00:42;3.30;;;2.60;;
30519;SDS011;17300;50.374;8.006;2023-07-22T07:03:09;2.97;;;2.77;;
30519;SDS011;17300;50.374;8.006;2023-07-22T07:05:36;2.90;;;2.70;;
30519;SDS011;17300;50.374;8.006;2023-07-22T07:08:07;3.03;;;2.83;;
30519;SDS011;17300;50.374;8.006;2023-07-22T07:10:36;2.97;;;2.77;;
30519;SDS011;17300;50.374;8.006;2023-07-22T07:13:03;2.77;;;2.57;;
30519;SDS011;17300;50.374;8.006;2023-07-22T07:15:30;3.00;;;2.80;;
30519;SDS011;17300;50.374;8.006;2023-07-22T07:17:57;3.08;;;2.78;;
30519;SDS011;17300;50.374;8.006;2023-07-22T07:20:23;2.97;;;2.63;;
30519;SDS011;17300;50.374;8.006;2023-07-22T07:22:50;2.90;;;2.70;;
30519;SDS011;17300;50.374;8.006;2023-07-22T07:25:18;2.80;;;2.60;;
30519;SDS011;17300;50.374;8.006;2023-07-22T07:27:44;3.00;;;2.80;;
30519;SDS011;17300;50.374;8.006;2023-07-22T07:30:11;2.63;;;2.42;;
30519;SDS011;17300;50.374;8.006;2023-07-22T07:32:38;3.03;;;2.70;;
30519;SDS011;17300;50.374;8.006;2023-07-22T07:35:05;3.05;;;2.85;;
30519;SDS011;17300;50.374;8.006;2023-07-22T07:37:33;2.70;;;2.50;;
30519;SDS011;17300;50.374;8.006;2023-07-22T07:40:00;2.33;;;2.22;;
30519;SDS011;17300;50.374;8.006;2023-07-22T07:42:28;2.67;;;2.55;;
30519;SDS011;17300;50.374;8.006;2023-07-22T07:44:55;2.53;;;2.33;;
30519;SDS011;17300;50.374;8.006;2023-07-22T07:47:21;2.80;;;2.60;;
30519;SDS011;17300;50.374;8.006;2023-07-22T07:49:48;2.75;;;2.55;;
30519;SDS011;17300;50.374;8.006;2023-07-22T07:52:15;2.78;;;2.58;;
30519;SDS011;17300;50.374;8.006;2023-07-22T07:54:41;2.60;;;2.50;;
30519;SDS011;17300;50.374;8.006;2023-07-22T07:57:08;2.70;;;2.50;;
30519;SDS011;17300;50.374;8.006;2023-07-22T07:59:36;2.38;;;2.28;;
30519;SDS011;17300;50.374;8.006;2023-07-22T08:02:03;2.45;;;2.25;;
30519;SDS011;17300;50.374;8.006;2023-07-22T08:04:34;2.67;;;2.53;;
30519;SDS011;17300;50.374;8.006;2023-07-22T08:07:00;2.58;;;2.38;;
30519;SDS011;17300;50.374;8.006;2023-07-22T08:09:29;2.60;;;2.40;;
30519;SDS011;17300;50.374;8.006;2023-07-22T08:11:56;2.28;;;2.17;;
30519;SDS011;17300;50.374;8.006;2023-07-22T08:14:22;2.58;;;2.38;;
30519;SDS011;17300;50.374;8.006;2023-07-22T08:16:50;2.75;;;2.53;;
30519;SDS011;17300;50.374;8.006;2023-07-22T08:19:17;2.53;;;2.33;;
30519;SDS011;17300;50.374;8.006;2023-07-22T08:21:44;3.03;;;2.58;;
30519;SDS011;17300;50.374;8.006;2023-07-22T08:24:10;3.35;;;2.63;;
30519;SDS011;17300;50.374;8.006;2023-07-22T08:26:37;2.53;;;2.40;;
30519;SDS011;17300;50.374;8.006;2023-07-22T08:29:04;2.50;;;2.40;;
30519;SDS011;17300;50.374;8.006;2023-07-22T08:31:30;2.60;;;2.40;;
30519;SDS011;17300;50.374;8.006;2023-07-22T08:33:58;2.22;;;2.13;;
30519;SDS011;17300;50.374;8.006;2023-07-22T08:36:25;2.30;;;2.20;;
30519;SDS011;17300;50.374;8.006;2023-07-22T08:38:52;2.40;;;2.20;;
30519;SDS011;17300;50.374;8.006;2023-07-22T08:41:18;2.35;;;2.15;;
30519;SDS011;17300;50.374;8.006;2023-07-22T08:43:47;2.20;;;2.10;;
30519;SDS011;17300;50.374;8.006;2023-07-22T08:46:16;2.40;;;2.20;;
30519;SDS011;17300;50.374;8.006;2023-07-22T08:48:46;2.20;;;2.08;;
30519;SDS011;17300;50.374;8.006;2023-07-22T08:51:16;2.55;;;2.17;;
30519;SDS011;17300;50.374;8.006;2023-07-22T08:53:44;2.55;;;2.17;;
30519;SDS011;17300;50.374;8.006;2023-07-22T08:56:15;2.35;;;2.20;;
30519;SDS011;17300;50.374;8.006;2023-07-22T08:58:42;2.40;;;2.15;;
30519;SDS011;17300;50.374;8.006;2023-07-22T09:01:11;2.33;;;2.13;;
30519;SDS011;17300;50.374;8.006;2023-07-22T09:03:37;2.25;;;2.05;;
30519;SDS011;17300;50.374;8.006;2023-07-22T09:06:06;2.50;;;2.30;;
30519;SDS011;17300;50.374;8.006;2023-07-22T09:08:34;2.55;;;2.35;;
30519;SDS011;17300;50.374;8.006;2023-07-22T09:11:01;2.22;;;2.03;;
30519;SDS011;17300;50.374;8.006;2023-07-22T09:13:28;2.40;;;2.20;;
30519;SDS011;17300;50.374;8.006;2023-07-22T09:15:56;2.20;;;2.10;;
30519;SDS011;17300;50.374;8.006;2023-07-22T09:18:24;2.50;;;2.30;;
30519;SDS011;17300;50.374;8.006;2023-07-22T09:20:51;2.55;;;2.35;;
30519;SDS011;17300;50.374;8.006;2023-07-22T09:23:18;2.50;;;2.30;;
30519;SDS011;17300;50.374;8.006;2023-07-22T09:25:46;2.75;;;2.55;;
30519;SDS011;17300;50.374;8.006;2023-07-22T09:28:12;2.65;;;2.45;;
30519;SDS011;17300;50.374;8.006;2023-07-22T09:30:39;2.80;;;2.60;;
30519;SDS011;17300;50.374;8.006;2023-07-22T09:33:06;2.80;;;2.60;;
30519;SDS011;17300;50.374;8.006;2023-07-22T09:35:43;2.47;;;2.28;;
30519;SDS011;17300;50.374;8.006;2023-07-22T09:38:11;2.90;;;2.38;;
30519;SDS011;17300;50.374;8.006;2023-07-22T09:40:39;2.33;;;2.20;;
30519;SDS011;17300;50.374;8.006;2023-07-22T09:43:09;2.58;;;2.38;;
30519;SDS011;17300;50.374;8.006;2023-07-22T09:45:37;2.80;;;2.60;;
30519;SDS011;17300;50.374;8.006;2023-07-22T09:48:03;2.70;;;2.50;;
30519;SDS011;17300;50.374;8.006;2023-07-22T09:50:30;2.72;;;2.13;;
30519;SDS011;17300;50.374;8.006;2023-07-22T09:52:57;2.22;;;2.03;;
30519;SDS011;17300;50.374;8.006;2023-07-22T09:55:26;2.70;;;2.50;;
30519;SDS011;17300;50.374;8.006;2023-07-22T09:57:55;2.47;;;2.30;;
30519;SDS011;17300;50.374;8.006;2023-07-22T10:00:24;3.38;;;2.10;;
30519;SDS011;17300;50.374;8.006;2023-07-22T10:02:55;2.55;;;2.35;;
30519;SDS011;17300;50.374;8.006;2023-07-22T10:05:24;2.15;;;2.05;;
30519;SDS011;17300;50.374;8.006;2023-07-22T10:07:52;2.10;;;2.00;;
30519;SDS011;17300;50.374;8.006;2023-07-22T10:10:20;5.53;;;1.88;;
30519;SDS011;17300;50.374;8.006;2023-07-22T10:12:49;2.83;;;2.17;;
30519;SDS011;17300;50.374;8.006;2023-07-22T10:15:16;2.28;;;2.17;;
30519;SDS011;17300;50.374;8.006;2023-07-22T10:17:45;2.33;;;2.13;;
30519;SDS011;17300;50.374;8.006;2023-07-22T10:20:12;2.50;;;2.30;;
30519;SDS011;17300;50.374;8.006;2023-07-22T10:22:41;2.60;;;2.22;;
30519;SDS011;17300;50.374;8.006;2023-07-22T10:25:10;2.40;;;2.20;;
30519;SDS011;17300;50.374;8.006;2023-07-22T10:27:38;2.38;;;2.05;;
30519;SDS011;17300;50.374;8.006;2023-07-22T10:30:06;2.20;;;2.00;;
30519;SDS011;17300;50.374;8.006;2023-07-22T10:32:34;2.70;;;2.45;;
30519;SDS011;17300;50.374;8.006;2023-07-22T10:35:04;2.30;;;2.10;;
30519;SDS011;17300;50.374;8.006;2023-07-22T10:37:35;2.17;;;2.08;;
30519;SDS011;17300;50.374;8.006;2023-07-22T10:40:15;2.30;;;2.10;;
30519;SDS011;17300;50.374;8.006;2023-07-22T10:42:50;2.15;;;2.05;;
30519;SDS011;17300;50.374;8.006;2023-07-22T10:45:23;2.05;;;1.80;;
30519;SDS011;17300;50.374;8.006;2023-07-22T10:47:59;2.08;;;1.98;;
30519;SDS011;17300;50.374;8.006;2023-07-22T10:50:38;2.38;;;2.20;;
30519;SDS011;17300;50.374;8.006;2023-07-22T10:53:06;2.15;;;2.05;;
30519;SDS011;17300;50.374;8.006;2023-07-22T10:55:38;2.20;;;2.10;;
30519;SDS011;17300;50.374;8.006;2023-07-22T10:58:31;3.03;;;2.10;;
30519;SDS011;17300;50.374;8.006;2023-07-22T11:04:02;3.92;;;2.25;;
30519;SDS011;17300;50.374;8.006;2023-07-22T11:06:31;2.10;;;2.00;;
30519;SDS011;17300;50.374;8.006;2023-07-22T11:08:58;3.10;;;2.38;;
30519;SDS011;17300;50.374;8.006;2023-07-22T11:11:33;2.35;;;2.15;;
30519;SDS011;17300;50.374;8.006;2023-07-22T11:14:12;2.17;;;2.05;;
30519;SDS011;17300;50.374;8.006;2023-07-22T11:16:40;2.33;;;2.15;;
30519;SDS011;17300;50.374;8.006;2023-07-22T11:19:08;2.30;;;2.10;;
30519;SDS011;17300;50.374;8.006;2023-07-22T11:21:36;2.25;;;2.05;;
30519;SDS011;17300;50.374;8.006;2023-07-22T11:24:03;2.20;;;2.00;;
30519;SDS011;17300;50.374;8.006;2023-07-22T11:26:30;3.53;;;1.90;;
30519;SDS011;17300;50.374;8.006;2023-07-22T11:28:58;2.60;;;2.13;;
30519;SDS011;17300;50.374;8.006;2023-07-22T11:31:30;2.38;;;2.17;;
30519;SDS011;17300;50.374;8.006;2023-07-22T11:33:57;2.38;;;2.17;;
30519;SDS011;17300;50.374;8.006;2023-07-22T11:36:24;2.40;;;2.20;;
30519;SDS011;17300;50.374;8.006;2023-07-22T11:38:53;2.50;;;2.30;;
30519;SDS011;17300;50.374;8.006;2023-07-22T11:41:20;2.17;;;2.03;;
30519;SDS011;17300;50.374;8.006;2023-07-22T11:43:47;2.42;;;2.00;;
30519;SDS011;17300;50.374;8.006;2023-07-22T11:46:13;2.80;;;2.30;;
30519;SDS011;17300;50.374;8.006;2023-07-22T11:48:48;3.17;;;2.20;;
30519;SDS011;17300;50.374;8.006;2023-07-22T11:51:16;2.28;;;2.17;;
30519;SDS011;17300;50.374;8.006;2023-07-22T11:53:45;2.47;;;2.28;;
30519;SDS011;17300;50.374;8.006;2023-07-22T11:56:18;2.30;;;2.20;;
30519;SDS011;17300;50.374;8.006;2023-07-22T11:58:50;2.42;;;2.22;;
30519;SDS011;17300;50.374;8.006;2023-07-22T12:01:17;2.33;;;2.22;;
30519;SDS011;17300;50.374;8.006;2023-07-22T12:03:44;2.15;;;2.05;;
30519;SDS011;17300;50.374;8.006;2023-07-22T12:06:11;2.53;;;2.33;;
30519;SDS011;17300;50.374;8.006;2023-07-22T12:08:42;4.50;;;2.50;;
30519;SDS011;17300;50.374;8.006;2023-07-22T12:11:15;2.53;;;2.33;;
30519;SDS011;17300;50.374;8.006;2023-07-22T12:13:44;2.60;;;2.40;;
30519;SDS011;17300;50.374;8.006;2023-07-22T12:16:20;2.72;;;2.53;;
30519;SDS011;17300;50.374;8.006;2023-07-22T12:18:48;3.45;;;2.72;;
30519;SDS011;17300;50.374;8.006;2023-07-22T12:21:15;2.28;;;2.17;;
30519;SDS011;17300;50.374;8.006;2023-07-22T12:23:42;2.60;;;2.40;;
30519;SDS011;17300;50.374;8.006;2023-07-22T12:26:09;2.28;;;2.17;;
30519;SDS011;17300;50.374;8.006;2023-07-22T12:28:35;2.53;;;2.33;;
30519;SDS011;17300;50.374;8.006;2023-07-22T12:31:03;3.05;;;2.40;;
30519;SDS011;17300;50.374;8.006;2023-07-22T12:33:30;3.10;;;2.47;;
30519;SDS011;17300;50.374;8.006;2023-07-22T12:35:57;2.70;;;2.50;;
30519;SDS011;17300;50.374;8.006;2023-07-22T12:38:23;2.60;;;2.40;;
30519;SDS011;17300;50.374;8.006;2023-07-22T12:40:50;2.60;;;2.40;;
30519;SDS011;17300;50.374;8.006;2023-07-22T12:43:17;2.85;;;2.65;;
30519;SDS011;17300;50.374;8.006;2023-07-22T12:45:43;2.60;;;2.40;;
30519;SDS011;17300;50.374;8.006;2023-07-22T12:48:11;2.70;;;2.50;;
30519;SDS011;17300;50.374;8.006;2023-07-22T12:50:38;2.63;;;2.42;;
30519;SDS011;17300;50.374;8.006;2023-07-22T12:53:05;2.45;;;2.25;;
30519;SDS011;17300;50.374;8.006;2023-07-22T12:55:31;2.50;;;2.30;;
30519;SDS011;17300;50.374;8.006;2023-07-22T12:57:58;2.90;;;2.60;;
30519;SDS011;17300;50.374;8.006;2023-07-22T13:00:25;3.55;;;2.58;;
30519;SDS011;17300;50.374;8.006;2023-07-22T13:02:52;2.55;;;2.35;;
30519;SDS011;17300;50.374;8.006;2023-07-22T13:05:20;2.50;;;2.30;;
30519;SDS011;17300;50.374;8.006;2023-07-22T13:07:46;2.53;;;2.33;;
30519;SDS011;17300;50.374;8.006;2023-07-22T13:10:14;3.28;;;2.22;;
30519;SDS011;17300;50.374;8.006;2023-07-22T13:12:43;2.40;;;2.30;;
30519;SDS011;17300;50.374;8.006;2023-07-22T13:15:10;3.15;;;2.80;;
30519;SDS011;17300;50.374;8.006;2023-07-22T13:17:37;2.72;;;2.53;;
30519;SDS011;17300;50.374;8.006;2023-07-22T13:20:04;2.92;;;2.72;;
30519;SDS011;17300;50.374;8.006;2023-07-22T13:22:35;3.30;;;2.67;;
30519;SDS011;17300;50.374;8.006;2023-07-22T13:25:02;2.55;;;2.33;;
30519;SDS011;17300;50.374;8.006;2023-07-22T13:27:29;2.90;;;2.70;;
30519;SDS011;17300;50.374;8.006;2023-07-22T13:29:56;2.90;;;2.70;;
30519;SDS011;17300;50.374;8.006;2023-07-22T13:32:23;2.88;;;2.58;;
30519;SDS011;17300;50.374;8.006;2023-07-22T13:34:49;2.88;;;2.65;;
30519;SDS011;17300;50.374;8.006;2023-07-22T13:37:16;4.15;;;2.70;;
30519;SDS011;17300;50.374;8.006;2023-07-22T13:39:44;2.70;;;2.50;;
30519;SDS011;17300;50.374;8.006;2023-07-22T13:42:11;2.75;;;2.55;;
30519;SDS011;17300;50.374;8.006;2023-07-22T13:44:38;2.75;;;2.55;;
30519;SDS011;17300;50.374;8.006;2023-07-22T13:47:04;2.92;;;2.72;;
30519;SDS011;17300;50.374;8.006;2023-07-22T13:49:31;3.00;;;2.45;;
30519;SDS011;17300;50.374;8.006;2023-07-22T13:51:58;2.70;;;2.50;;
30519;SDS011;17300;50.374;8.006;2023-07-22T13:54:24;2.80;;;2.60;;
30519;SDS011;17300;50.374;8.006;2023-07-22T13:56:52;3.25;;;2.70;;
30519;SDS011;17300;50.374;8.006;2023-07-22T13:59:19;3.33;;;3.03;;
30519;SDS011;17300;50.374;8.006;2023-07-22T14:01:46;3.10;;;2.80;;
30519;SDS011;17300;50.374;8.006;2023-07-22T14:04:13;2.90;;;2.70;;
30519;SDS011;17300;50.374;8.006;2023-07-22T14:06:39;3.15;;;2.50;;
30519;SDS011;17300;50.374;8.006;2023-07-22T14:09:06;3.30;;;2.53;;
30519;SDS011;17300;50.374;8.006;2023-07-22T14:11:33;2.95;;;2.75;;
30519;SDS011;17300;50.374;8.006;2023-07-22T14:14:01;2.90;;;2.67;;
30519;SDS011;17300;50.374;8.006;2023-07-22T14:16:28;3.72;;;2.95;;
30519;SDS011;17300;50.374;8.006;2023-07-22T14:18:54;2.88;;;2.67;;
30519;SDS011;17300;50.374;8.006;2023-07-22T14:21:21;3.65;;;2.92;;
30519;SDS011;17300;50.374;8.006;2023-07-22T14:23:48;2.90;;;2.70;;
30519;SDS011;17300;50.374;8.006;2023-07-22T14:26:14;2.75;;;2.55;;
30519;SDS011;17300;50.374;8.006;2023-07-22T14:28:41;2.90;;;2.70;;
30519;SDS011;17300;50.374;8.006;2023-07-22T14:31:09;2.63;;;2.42;;
30519;SDS011;17300;50.374;8.006;2023-07-22T14:33:35;2.80;;;2.60;;
30519;SDS011;17300;50.374;8.006;2023-07-22T14:36:02;3.00;;;2.75;;
30519;SDS011;17300;50.374;8.006;2023-07-22T14:38:29;3.08;;;2.70;;
30519;SDS011;17300;50.374;8.006;2023-07-22T14:40:56;3.13;;;2.92;;
30519;SDS011;17300;50.374;8.006;2023-07-22T14:43:23;3.58;;;2.88;;
30519;SDS011;17300;50.374;8.006;2023-07-22T14:45:50;5.10;;;2.95;;
30519;SDS011;17300;50.374;8.006;2023-07-22T14:48:18;2.65;;;2.45;;
30519;SDS011;17300;50.374;8.006;2023-07-22T14:50:44;2.88;;;2.67;;
30519;SDS011;17300;50.374;8.006;2023-07-22T14:53:11;2.70;;;2.50;;